Time;durP1;ratioP1;P1;durP2;ratioP2;P2;SDS_P1;SDS_P2;PMS_P1;PMS_P2;Temp;Humidity;BMP_temperature;BMP_pressure;BME280_temperature;BME280_humidity;BME280_pressure;Samples;Min_cycle;Max_cycle;Signal;HPM_P1;HPM_P2
2023/10/24 00:01:13;;;;;;;0.30;0.20;;;;;;;13.78;100.00;99204.31;5015429;28;20929;-48
2023/10/24 00:03:40;;;;;;;0.40;0.30;;;;;;;13.73;100.00;99217.06;5022218;28;20426;-47
2023/10/24 00:06:06;;;;;;;0.40;0.30;;;;;;;13.74;100.00;99224.13;5018634;28;20458;-47
2023/10/24 00:08:33;;;;;;;0.30;0.20;;;;;;;13.84;100.00;99230.63;5021711;28;20476;-47
2023/10/24 00:11:01;;;;;;;0.30;0.20;;;;;;;13.84;100.00;99238.66;5025074;28;20419;-47
2023/10/24 00:13:28;;;;;;;0.30;0.20;;;;;;;13.91;100.00;99240.88;5022279;28;20448;-47
2023/10/24 00:15:54;;;;;;;0.30;0.20;;;;;;;13.80;100.00;99224.63;5018224;28;20447;-47
2023/10/24 00:18:21;;;;;;;0.30;0.20;;;;;;;13.84;100.00;99220.84;5021156;28;20451;-47
2023/10/24 00:20:47;;;;;;;0.30;0.20;;;;;;;13.83;100.00;99235.13;5024694;28;20448;-47
2023/10/24 00:23:14;;;;;;;0.30;0.20;;;;;;;13.76;100.00;99241.78;5022893;28;20947;-47
2023/10/24 00:25:40;;;;;;;0.30;0.20;;;;;;;13.64;100.00;99235.34;5018078;28;20542;-47
2023/10/24 00:28:07;;;;;;;0.30;0.20;;;;;;;13.60;100.00;99238.28;5020531;28;20882;-47
2023/10/24 00:30:34;;;;;;;0.30;0.20;;;;;;;13.71;100.00;99240.34;5025168;28;20427;-47
2023/10/24 00:33:00;;;;;;;0.30;0.20;;;;;;;13.76;100.00;99244.47;5025563;28;20996;-47
2023/10/24 00:35:27;;;;;;;0.30;0.20;;;;;;;13.81;100.00;99230.81;5021629;28;20448;-47
2023/10/24 00:37:53;;;;;;;0.30;0.20;;;;;;;13.80;100.00;99226.44;5024061;28;20472;-47
2023/10/24 00:40:20;;;;;;;0.30;0.20;;;;;;;13.79;100.00;99238.94;5028196;28;21026;-47
2023/10/24 00:42:47;;;;;;;0.30;0.30;;;;;;;13.79;100.00;99240.75;5025794;28;20487;-46
2023/10/24 00:45:13;;;;;;;0.30;0.20;;;;;;;13.74;100.00;99259.72;5021656;28;20480;-46
2023/10/24 00:47:40;;;;;;;0.30;0.20;;;;;;;13.77;100.00;99262.19;5024018;28;20452;-47
2023/10/24 00:50:07;;;;;;;0.30;0.20;;;;;;;13.69;100.00;99264.44;5028184;28;20507;-47
2023/10/24 00:52:36;;;;;;;0.30;0.20;;;;;;;13.60;100.00;99254.31;5026380;28;20879;-48
2023/10/24 00:55:05;;;;;;;0.30;0.20;;;;;;;13.54;100.00;99236.81;5015937;28;20463;-47
2023/10/24 00:57:32;;;;;;;0.30;0.20;;;;;;;13.67;100.00;99231.63;5014747;28;20543;-47
2023/10/24 00:59:59;;;;;;;0.30;0.20;;;;;;;13.73;100.00;99236.63;5028067;28;20434;-47
2023/10/24 01:02:26;;;;;;;0.30;0.20;;;;;;;13.72;100.00;99242.94;5014697;28;20895;-47
2023/10/24 01:04:54;;;;;;;0.50;0.50;;;;;;;13.75;100.00;99247.22;5027720;28;20942;-47
2023/10/24 01:07:21;;;;;;;0.30;0.20;;;;;;;13.74;100.00;99233.00;5027676;28;20479;-48
2023/10/24 01:09:47;;;;;;;0.30;0.20;;;;;;;13.83;100.00;99239.59;5020835;28;20529;-47
2023/10/24 01:12:15;;;;;;;0.30;0.20;;;;;;;13.70;100.00;99242.13;5021023;28;20423;-49
2023/10/24 01:14:42;;;;;;;0.30;0.20;;;;;;;13.72;100.00;99232.25;5027681;28;20799;-47
2023/10/24 01:17:12;;;;;;;0.30;0.20;;;;;;;13.83;100.00;99234.25;5027717;28;20432;-47
2023/10/24 01:19:39;;;;;;;0.30;0.20;;;;;;;13.90;100.00;99219.59;5021807;28;20972;-47
2023/10/24 01:22:06;;;;;;;0.30;0.20;;;;;;;13.94;100.00;99208.63;5020778;28;20459;-48
2023/10/24 01:24:33;;;;;;;0.30;0.20;;;;;;;14.05;100.00;99216.00;5026450;28;20463;-47
2023/10/24 01:26:59;;;;;;;0.30;0.20;;;;;;;14.10;100.00;99215.72;5027620;28;20454;-47
2023/10/24 01:29:26;;;;;;;0.30;0.20;;;;;;;13.96;100.00;99210.34;5022047;28;20579;-47
2023/10/24 01:31:52;;;;;;;0.30;0.20;;;;;;;13.95;100.00;99217.50;5020515;28;20812;-47
2023/10/24 01:34:20;;;;;;;0.30;0.20;;;;;;;13.79;100.00;99217.56;5026016;28;20449;-48
2023/10/24 01:36:46;;;;;;;0.30;0.20;;;;;;;13.82;100.00;99204.03;5027332;28;20982;-48
2023/10/24 01:39:12;;;;;;;0.30;0.20;;;;;;;14.24;100.00;99202.38;5021874;28;20453;-47
2023/10/24 01:41:39;;;;;;;0.30;0.20;;;;;;;14.36;100.00;99216.81;5020119;28;21380;-47
2023/10/24 01:44:05;;;;;;;0.30;0.20;;;;;;;14.14;100.00;99211.94;5025253;28;20459;-47
2023/10/24 01:46:32;;;;;;;0.30;0.20;;;;;;;14.14;100.00;99212.81;5027217;28;20426;-47
2023/10/24 01:48:58;;;;;;;0.30;0.20;;;;;;;14.03;100.00;99199.22;5022206;28;20812;-47
2023/10/24 01:51:25;;;;;;;0.30;0.20;;;;;;;14.05;100.00;99208.00;5019923;28;20445;-47
2023/10/24 01:53:51;;;;;;;0.30;0.20;;;;;;;13.99;100.00;99197.69;5025296;28;20522;-47
2023/10/24 01:56:18;;;;;;;0.30;0.20;;;;;;;14.06;100.00;99195.50;5013562;28;20842;-47
2023/10/24 01:58:44;;;;;;;0.30;0.20;;;;;;;14.20;100.00;99183.00;5022715;28;21004;-47
2023/10/24 02:01:11;;;;;;;0.30;0.20;;;;;;;14.19;100.00;99186.63;5017413;28;20879;-47
2023/10/24 02:03:37;;;;;;;0.30;0.20;;;;;;;14.13;100.00;99212.91;5022983;28;20985;-47
2023/10/24 02:06:04;;;;;;;0.30;0.20;;;;;;;14.09;100.00;99184.63;5019663;28;20983;-47
2023/10/24 02:08:30;;;;;;;0.30;0.20;;;;;;;14.14;100.00;99190.56;5024116;28;21143;-47
2023/10/24 02:10:57;;;;;;;0.30;0.20;;;;;;;14.25;100.00;99198.75;5026638;28;20995;-47
2023/10/24 02:13:23;;;;;;;0.30;0.20;;;;;;;14.22;100.00;99199.81;5022895;28;20427;-47
2023/10/24 02:15:53;;;;;;;0.30;0.20;;;;;;;14.26;100.00;99188.97;5019809;28;20447;-47
2023/10/24 02:18:19;;;;;;;0.30;0.20;;;;;;;14.07;100.00;99186.53;5023549;28;20507;-47
2023/10/24 02:20:46;;;;;;;0.30;0.20;;;;;;;14.15;100.00;99195.81;5026377;28;20452;-47
2023/10/24 02:23:12;;;;;;;0.30;0.20;;;;;;;14.22;100.00;99198.94;5023368;28;20905;-47
2023/10/24 02:25:39;;;;;;;0.30;0.20;;;;;;;14.21;100.00;99194.56;5019587;28;20472;-47
2023/10/24 02:28:05;;;;;;;0.30;0.20;;;;;;;14.44;100.00;99191.38;5022607;28;20443;-47
2023/10/24 02:30:36;;;;;;;0.30;0.20;;;;;;;14.58;100.00;99186.97;5026278;28;20433;-48
2023/10/24 02:33:02;;;;;;;0.30;0.20;;;;;;;14.99;100.00;99179.84;5023904;28;20429;-49
2023/10/24 02:35:29;;;;;;;0.30;0.20;;;;;;;14.93;100.00;99174.88;5019490;28;20429;-47
2023/10/24 02:37:55;;;;;;;0.30;0.20;;;;;;;14.79;100.00;99191.81;5021787;28;20557;-47
2023/10/24 02:40:22;;;;;;;0.30;0.20;;;;;;;14.75;100.00;99201.00;5026207;28;20932;-48
2023/10/24 02:42:48;;;;;;;0.30;0.20;;;;;;;14.36;100.00;99207.00;5024074;28;20495;-48
2023/10/24 02:45:15;;;;;;;0.30;0.20;;;;;;;14.42;100.00;99209.31;5019484;28;20860;-47
2023/10/24 02:47:41;;;;;;;0.30;0.20;;;;;;;14.26;100.00;99205.84;5020895;28;20427;-48
2023/10/24 02:50:08;;;;;;;0.30;0.20;;;;;;;14.34;100.00;99214.25;5026071;28;20946;-47
2023/10/24 02:52:35;;;;;;;0.30;0.20;;;;;;;14.34;100.00;99218.72;5013036;28;20452;-47
2023/10/24 02:55:03;;;;;;;0.30;0.20;;;;;;;14.32;100.00;99215.31;5024871;28;20484;-49
2023/10/24 02:57:29;;;;;;;0.30;0.20;;;;;;;14.37;100.00;99207.84;5012862;28;20544;-47
2023/10/24 02:59:56;;;;;;;0.30;0.20;;;;;;;14.33;100.00;99207.19;5025614;28;20527;-47
2023/10/24 03:02:22;;;;;;;0.30;0.20;;;;;;;14.38;100.00;99210.41;5012902;28;20996;-47
2023/10/24 03:04:48;;;;;;;0.30;0.20;;;;;;;14.32;100.00;99213.47;5026059;28;20548;-47
2023/10/24 03:07:15;;;;;;;0.30;0.20;;;;;;;14.41;100.00;99228.13;5025393;28;20422;-47
2023/10/24 03:09:42;;;;;;;0.30;0.20;;;;;;;14.35;100.00;99218.63;5018724;28;20474;-47
2023/10/24 03:12:09;;;;;;;0.30;0.20;;;;;;;14.33;100.00;99217.88;5007313;28;20470;-48
2023/10/24 03:14:36;;;;;;;0.30;0.20;;;;;;;14.29;100.00;99216.34;5025197;28;20431;-47
2023/10/24 03:17:03;;;;;;;0.30;0.20;;;;;;;14.29;100.00;99216.34;5024976;28;20820;-48
2023/10/24 03:19:32;;;;;;;0.30;0.20;;;;;;;14.12;100.00;99214.72;5019163;28;20500;-47
2023/10/24 03:21:59;;;;;;;0.30;0.20;;;;;;;14.19;100.00;99218.72;5018875;28;20503;-50
2023/10/24 03:24:28;;;;;;;0.30;0.20;;;;;;;14.23;100.00;99211.34;5006487;28;20434;-48
2023/10/24 03:26:55;;;;;;;0.30;0.20;;;;;;;14.16;100.00;99234.09;5018738;28;20456;-48
2023/10/24 03:29:21;;;;;;;0.30;0.20;;;;;;;14.12;100.00;99222.72;5024475;28;20512;-48
2023/10/24 03:31:48;;;;;;;0.30;0.20;;;;;;;14.04;100.00;99226.78;5025645;28;20574;-48
2023/10/24 03:34:15;;;;;;;0.30;0.20;;;;;;;13.97;100.00;99220.09;5020074;28;20451;-48
2023/10/24 03:36:42;;;;;;;0.30;0.20;;;;;;;13.82;100.00;99228.06;5018875;28;20438;-47
2023/10/24 03:39:08;;;;;;;0.30;0.20;;;;;;;13.76;100.00;99222.22;5023941;28;20447;-48
2023/10/24 03:41:36;;;;;;;0.30;0.20;;;;;;;13.70;100.00;99219.91;5025232;28;21018;-47
2023/10/24 03:44:03;;;;;;;0.30;0.20;;;;;;;13.66;100.00;99229.91;5020686;28;20423;-47
2023/10/24 03:46:29;;;;;;;0.30;0.20;;;;;;;13.71;100.00;99214.50;5018568;28;20938;-47
2023/10/24 03:48:57;;;;;;;0.30;0.20;;;;;;;13.74;100.00;99214.31;5023577;28;20471;-47
2023/10/24 03:51:24;;;;;;;0.30;0.20;;;;;;;13.58;100.00;99209.00;5015681;28;20461;-47
2023/10/24 03:53:51;;;;;;;0.30;0.20;;;;;;;13.38;100.00;99197.75;5021491;28;20530;-47
2023/10/24 03:56:17;;;;;;;0.30;0.20;;;;;;;13.54;100.00;99206.59;5015755;28;20448;-47
2023/10/24 03:58:44;;;;;;;0.30;0.20;;;;;;;13.50;100.00;99210.41;5021512;28;20515;-51
2023/10/24 04:01:11;;;;;;;0.30;0.20;;;;;;;13.52;100.00;99206.69;5016349;28;20544;-51
2023/10/24 04:03:38;;;;;;;0.30;0.20;;;;;;;13.60;100.00;99211.59;5021392;28;20492;-50
2023/10/24 04:06:11;;;;;;;0.30;0.20;;;;;;;13.59;100.00;99220.56;5020168;28;20505;-50
2023/10/24 04:08:38;;;;;;;0.30;0.20;;;;;;;13.43;100.00;99227.69;5025002;28;20468;-50
2023/10/24 04:11:15;;;;;;;0.30;0.20;;;;;;;13.37;100.00;99234.25;5028590;28;20482;-50
2023/10/24 04:13:43;;;;;;;0.30;0.20;;;;;;;13.42;100.00;99237.53;5028214;28;20448;-50
2023/10/24 04:16:10;;;;;;;0.30;0.20;;;;;;;13.29;100.00;99228.50;5022099;28;20451;-50
2023/10/24 04:18:38;;;;;;;0.30;0.20;;;;;;;13.40;100.00;99238.56;5022659;28;20447;-51
2023/10/24 04:21:04;;;;;;;0.30;0.20;;;;;;;13.50;100.00;99234.44;5028589;28;20427;-51
2023/10/24 04:23:31;;;;;;;0.30;0.20;;;;;;;13.49;100.00;99227.38;5027991;28;20487;-50
2023/10/24 04:25:58;;;;;;;0.30;0.20;;;;;;;13.57;100.00;99228.66;5020666;28;20516;-51
2023/10/24 04:28:24;;;;;;;11.47;9.70;;;;;;;13.55;100.00;99216.31;5022396;28;20447;-51
2023/10/24 04:30:51;;;;;;;0.30;0.20;;;;;;;13.70;100.00;99219.91;5028620;28;20876;-50
2023/10/24 04:33:18;;;;;;;0.30;0.20;;;;;;;13.58;100.00;99216.16;5028137;28;20459;-51
2023/10/24 04:35:50;;;;;;;0.30;0.20;;;;;;;13.48;100.00;99214.97;5021620;28;20881;-51
2023/10/24 04:38:18;;;;;;;0.30;0.20;;;;;;;13.48;100.00;99214.97;5021404;28;20530;-51
2023/10/24 04:40:45;;;;;;;0.30;0.20;;;;;;;13.47;100.00;99215.91;5028251;28;20430;-49
2023/10/24 04:43:11;;;;;;;0.30;0.20;;;;;;;13.40;100.00;99214.53;5029408;28;20466;-51
2023/10/24 04:45:38;;;;;;;0.30;0.20;;;;;;;13.33;100.00;99211.38;5022378;28;20454;-50
2023/10/24 04:48:05;;;;;;;0.30;0.20;;;;;;;13.37;100.00;99209.38;5021581;28;20495;-51
2023/10/24 04:50:36;;;;;;;0.30;0.20;;;;;;;13.36;100.00;99213.00;5027349;28;20456;-48
2023/10/24 04:53:03;;;;;;;0.30;0.20;;;;;;;13.27;100.00;99203.69;5028163;28;20452;-51
2023/10/24 04:55:30;;;;;;;0.30;0.20;;;;;;;13.44;100.00;99200.94;5014995;28;20455;-51
2023/10/24 04:57:57;;;;;;;0.30;0.20;;;;;;;13.39;100.00;99191.47;5017278;28;20549;-51
2023/10/24 05:00:26;;;;;;;0.30;0.20;;;;;;;13.39;100.00;99186.13;5015984;28;20925;-50
2023/10/24 05:02:53;;;;;;;0.30;0.20;;;;;;;13.39;100.00;99180.78;5015169;28;20486;-51
2023/10/24 05:05:19;;;;;;;0.30;0.20;;;;;;;13.38;100.00;99182.59;5024316;28;21009;-51
2023/10/24 05:07:46;;;;;;;0.30;0.20;;;;;;;13.41;100.00;99186.91;5027912;28;20438;-50
2023/10/24 05:10:12;;;;;;;0.30;0.20;;;;;;;13.24;100.00;99169.19;5025138;28;20459;-51
2023/10/24 05:12:39;;;;;;;0.30;0.20;;;;;;;13.34;100.00;99165.91;5021181;28;20531;-51
2023/10/24 05:15:06;;;;;;;0.30;0.20;;;;;;;13.37;100.00;99167.53;5023757;28;20459;-50
2023/10/24 05:17:32;;;;;;;0.30;0.20;;;;;;;13.43;100.00;99161.84;5026823;28;20460;-50
2023/10/24 05:20:03;;;;;;;0.30;0.20;;;;;;;13.32;100.00;99141.13;5024928;28;20455;-51
2023/10/24 05:22:31;;;;;;;0.30;0.20;;;;;;;13.48;100.00;99132.22;5020852;28;20847;-50
2023/10/24 05:24:57;;;;;;;0.30;0.20;;;;;;;13.62;100.00;99130.44;5022932;28;20423;-51
2023/10/24 05:27:25;;;;;;;0.30;0.20;;;;;;;13.58;100.00;99118.22;5027362;28;20423;-51
2023/10/24 05:29:52;;;;;;;0.30;0.20;;;;;;;13.57;100.00;99121.84;5026013;28;20452;-50
2023/10/24 05:32:19;;;;;;;0.30;0.20;;;;;;;13.58;100.00;99112.03;5020458;28;20418;-49
2023/10/24 05:34:45;;;;;;;0.30;0.20;;;;;;;13.47;100.00;99110.00;5022105;28;20459;-50
2023/10/24 05:37:12;;;;;;;0.30;0.20;;;;;;;13.49;100.00;99123.25;5027483;28;20452;-50
2023/10/24 05:39:39;;;;;;;0.30;0.20;;;;;;;13.46;100.00;99126.09;5026193;28;20468;-51
2023/10/24 05:42:05;;;;;;;0.30;0.20;;;;;;;13.49;100.00;99139.28;5020265;28;20487;-51
2023/10/24 05:44:32;;;;;;;0.30;0.20;;;;;;;13.50;100.00;99143.66;5021375;28;20985;-49
2023/10/24 05:46:58;;;;;;;0.30;0.20;;;;;;;13.45;100.00;99146.59;5027080;28;20448;-51
2023/10/24 05:49:25;;;;;;;0.30;0.20;;;;;;;13.24;100.00;99162.03;5026243;28;20475;-50
2023/10/24 05:51:52;;;;;;;0.30;0.20;;;;;;;13.34;100.00;99165.91;5020044;28;20880;-50
2023/10/24 05:54:18;;;;;;;2.90;2.77;;;;;;;13.26;100.00;99165.47;5021132;28;20528;-50
2023/10/24 05:56:45;;;;;;;0.30;0.20;;;;;;;13.24;100.00;99166.53;5013690;28;20452;-50
2023/10/24 05:59:11;;;;;;;0.30;0.20;;;;;;;13.11;100.00;99163.66;5026506;28;20450;-50
2023/10/24 06:01:41;;;;;;;0.30;0.20;;;;;;;13.20;100.00;99165.84;5000793;28;20942;-50
2023/10/24 06:04:07;;;;;;;0.30;0.20;;;;;;;13.14;100.00;99174.16;5026947;28;20491;-50
2023/10/24 06:06:34;;;;;;;0.30;0.20;;;;;;;13.18;100.00;99157.06;5007469;28;20538;-51
2023/10/24 06:09:00;;;;;;;0.30;0.20;;;;;;;13.19;100.00;99156.13;5020184;28;20560;-50
2023/10/24 06:11:27;;;;;;;0.30;0.20;;;;;;;13.10;100.00;99164.59;5020167;28;20463;-50
2023/10/24 06:13:53;;;;;;;0.30;0.20;;;;;;;13.10;100.00;99166.41;5019581;28;20455;-49
2023/10/24 06:16:20;;;;;;;0.30;0.20;;;;;;;13.18;100.00;99170.41;5026387;28;20952;-50
2023/10/24 06:18:46;;;;;;;0.30;0.20;;;;;;;13.41;100.00;99165.53;5026426;28;20467;-50
2023/10/24 06:21:13;;;;;;;0.30;0.20;;;;;;;13.43;100.00;99179.66;5009171;28;20508;-47
2023/10/24 06:23:39;;;;;;;0.30;0.20;;;;;;;13.32;100.00;99181.16;5019959;28;20578;-47
2023/10/24 06:26:17;;;;;;;0.30;0.20;;;;;;;13.20;100.00;99170.31;5020775;28;20813;-47
2023/10/24 06:28:43;;;;;;;0.30;0.20;;;;;;;13.23;100.00;99164.81;5019357;28;21011;-47
2023/10/24 06:31:10;;;;;;;0.30;0.20;;;;;;;13.14;100.00;99162.63;5023820;28;20464;-47
2023/10/24 06:33:37;;;;;;;0.30;0.20;;;;;;;13.20;100.00;99167.66;5026457;28;20447;-46
2023/10/24 06:36:05;;;;;;;0.30;0.20;;;;;;;13.22;100.00;99171.09;5022762;28;20559;-47
2023/10/24 06:38:31;;;;;;;0.30;0.20;;;;;;;13.31;100.00;99176.78;5019683;28;20504;-47
2023/10/24 06:40:58;;;;;;;0.40;0.30;;;;;;;13.24;100.00;99172.72;5022799;28;20456;-47
2023/10/24 06:43:26;;;;;;;0.30;0.20;;;;;;;13.27;100.00;99169.00;5026067;28;20583;-47
2023/10/24 06:45:53;;;;;;;0.30;0.20;;;;;;;13.36;100.00;99173.81;5023571;28;20545;-47
2023/10/24 06:48:20;;;;;;;0.30;0.20;;;;;;;13.30;100.00;99177.72;5019373;28;20450;-46
2023/10/24 06:50:47;;;;;;;0.30;0.20;;;;;;;13.30;100.00;99177.72;5022086;28;20536;-47
2023/10/24 06:53:14;;;;;;;0.30;0.20;;;;;;;13.28;100.00;99182.25;5026088;28;20912;-47
2023/10/24 06:55:40;;;;;;;0.30;0.20;;;;;;;13.25;100.00;99182.44;5012593;28;20459;-47
2023/10/24 06:58:08;;;;;;;0.30;0.20;;;;;;;13.29;100.00;99170.66;5016769;28;20578;-47
2023/10/24 07:00:34;;;;;;;0.30;0.20;;;;;;;13.26;100.00;99176.16;5021955;28;20488;-47
2023/10/24 07:03:01;;;;;;;0.30;0.20;;;;;;;13.33;100.00;99177.53;5016760;28;20454;-47
2023/10/24 07:05:28;;;;;;;0.30;0.20;;;;;;;13.43;100.00;99171.63;5021809;28;20455;-47
2023/10/24 07:07:55;;;;;;;0.30;0.20;;;;;;;13.38;100.00;99165.72;5025695;28;20504;-48
2023/10/24 07:10:21;;;;;;;0.30;0.20;;;;;;;13.38;100.00;99163.06;5023962;28;20456;-47
2023/10/24 07:12:48;;;;;;;0.30;0.20;;;;;;;13.41;100.00;99163.72;5019119;28;20856;-48
2023/10/24 07:15:14;;;;;;;0.30;0.20;;;;;;;13.37;100.00;99169.34;5019877;28;20779;-47
2023/10/24 07:17:42;;;;;;;0.30;0.20;;;;;;;13.34;100.00;99170.38;5025642;28;20932;-47
2023/10/24 07:20:10;;;;;;;0.30;0.20;;;;;;;13.50;100.00;99187.22;5024243;28;20452;-47
2023/10/24 07:22:37;;;;;;;0.30;0.20;;;;;;;13.54;100.00;99186.09;5018898;28;20452;-47
2023/10/24 07:25:04;;;;;;;0.30;0.20;;;;;;;13.54;100.00;99187.91;5020368;28;20424;-47
2023/10/24 07:27:31;;;;;;;0.30;0.20;;;;;;;13.62;100.00;99199.88;5025962;28;20427;-49
2023/10/24 07:29:57;;;;;;;0.30;0.20;;;;;;;13.64;100.00;99195.28;5024379;28;20884;-47
2023/10/24 07:32:24;;;;;;;0.30;0.20;;;;;;;13.69;100.00;99194.16;5018771;28;20878;-47
2023/10/24 07:34:55;;;;;;;0.30;0.20;;;;;;;13.68;100.00;99192.44;5020043;28;20827;-47
2023/10/24 07:37:23;;;;;;;0.30;0.20;;;;;;;13.63;100.00;99200.72;5025653;28;20422;-47
2023/10/24 07:39:50;;;;;;;0.30;0.20;;;;;;;13.64;100.00;99192.63;5025556;28;20499;-47
2023/10/24 07:42:16;;;;;;;0.30;0.20;;;;;;;13.71;100.00;99201.16;5029579;28;20518;-47
2023/10/24 07:44:43;;;;;;;0.30;0.20;;;;;;;13.67;100.00;99198.72;5029188;28;20519;-47
2023/10/24 07:47:09;;;;;;;0.30;0.20;;;;;;;13.55;100.00;99192.28;5023096;28;20509;-47
2023/10/24 07:49:36;;;;;;;0.30;0.20;;;;;;;13.59;100.00;99186.69;5022615;28;20497;-48
2023/10/24 07:52:03;;;;;;;0.30;0.20;;;;;;;13.67;100.00;99183.56;5022713;28;20426;-47
2023/10/24 07:54:30;;;;;;;0.30;0.20;;;;;;;13.81;100.00;99190.75;5022127;28;20486;-47
2023/10/24 07:56:57;;;;;;;0.30;0.20;;;;;;;13.89;100.00;99197.38;5016252;28;20437;-47
2023/10/24 07:59:26;;;;;;;0.30;0.20;;;;;;;13.97;100.00;99180.88;5029257;28;21012;-47
2023/10/24 08:01:53;;;;;;;0.30;0.20;;;;;;;13.96;100.00;99171.13;5016257;28;20452;-47
2023/10/24 08:04:19;;;;;;;0.30;0.20;;;;;;;14.02;100.00;99181.47;5028992;28;20465;-48
2023/10/24 08:06:46;;;;;;;0.30;0.20;;;;;;;13.94;100.00;99184.59;5024176;28;20451;-47
2023/10/24 08:09:12;;;;;;;0.30;0.20;;;;;;;13.92;100.00;99185.63;5022465;28;20475;-47
2023/10/24 08:11:40;;;;;;;0.30;0.20;;;;;;;13.83;100.00;99188.84;5027166;28;20807;-47
2023/10/24 08:14:06;;;;;;;0.30;0.20;;;;;;;13.80;100.00;99186.38;5028816;28;20833;-47
2023/10/24 08:16:33;;;;;;;0.30;0.20;;;;;;;13.95;100.00;99193.47;5024244;28;20500;-47
2023/10/24 08:18:59;;;;;;;0.30;0.20;;;;;;;13.98;100.00;99201.31;5022208;28;20475;-47
2023/10/24 08:21:26;;;;;;;0.30;0.20;;;;;;;14.07;100.00;99191.88;5027603;28;20910;-48
2023/10/24 08:23:54;;;;;;;0.30;0.20;;;;;;;13.97;100.00;99196.03;5028719;28;20590;-47
2023/10/24 08:26:21;;;;;;;0.30;0.20;;;;;;;13.90;100.00;99196.41;5024536;28;20450;-47
2023/10/24 08:28:48;;;;;;;0.30;0.20;;;;;;;14.07;100.00;99199.88;5021797;28;20454;-47
2023/10/24 08:31:14;;;;;;;0.30;0.30;;;;;;;14.12;100.00;99201.34;5026011;28;20953;-47
2023/10/24 08:33:41;;;;;;;0.30;0.20;;;;;;;13.99;100.00;99205.72;5028499;28;20443;-48
2023/10/24 08:36:07;;;;;;;0.30;0.20;;;;;;;14.01;100.00;99203.81;5025011;28;20451;-47
2023/10/24 08:38:34;;;;;;;0.30;0.20;;;;;;;13.99;100.00;99210.19;5021726;28;20562;-47
2023/10/24 08:41:00;;;;;;;0.30;0.20;;;;;;;13.97;100.00;99204.91;5025727;28;20461;-47
2023/10/24 08:43:27;;;;;;;0.30;0.20;;;;;;;13.91;100.00;99197.28;5028307;28;21029;-47
2023/10/24 08:45:54;;;;;;;0.30;0.20;;;;;;;14.02;100.00;99210.00;5024750;28;20456;-47
2023/10/24 08:48:21;;;;;;;0.30;0.20;;;;;;;14.00;100.00;99215.44;5021512;28;20467;-48
2023/10/24 08:50:47;;;;;;;0.30;0.20;;;;;;;13.98;100.00;99214.69;5025245;28;20483;-47
2023/10/24 08:53:15;;;;;;;0.33;0.27;;;;;;;13.82;100.00;99201.34;5017324;28;20778;-47
2023/10/24 08:55:51;;;;;;;0.30;0.20;;;;;;;13.87;100.00;99201.94;5023903;28;20452;-47
2023/10/24 08:58:19;;;;;;;0.30;0.20;;;;;;;14.02;100.00;99199.31;5020721;28;20446;-47
2023/10/24 09:00:47;;;;;;;0.30;0.20;;;;;;;14.13;100.00;99210.22;5022064;28;20528;-47
2023/10/24 09:03:18;;;;;;;0.30;0.20;;;;;;;14.22;100.00;99204.28;5021533;28;20466;-47
2023/10/24 09:05:46;;;;;;;0.30;0.20;;;;;;;14.19;100.00;99199.16;5021324;28;20515;-47
2023/10/24 09:08:16;;;;;;;0.30;0.20;;;;;;;14.24;100.00;99197.03;5027537;28;20447;-47
2023/10/24 09:10:44;;;;;;;0.30;0.20;;;;;;;14.11;100.00;99190.72;5028202;28;20458;-47
2023/10/24 09:13:11;;;;;;;0.30;0.20;;;;;;;14.16;100.00;99188.66;5022327;28;20476;-47
2023/10/24 09:15:39;;;;;;;0.30;0.20;;;;;;;14.29;100.00;99181.59;5021048;28;20523;-47
2023/10/24 09:18:05;;;;;;;0.30;0.20;;;;;;;14.37;100.00;99179.28;5026426;28;20537;-46
2023/10/24 09:20:33;;;;;;;0.30;0.20;;;;;;;14.28;100.00;99181.69;5027646;28;21015;-49
2023/10/24 09:23:07;;;;;;;0.30;0.20;;;;;;;14.38;100.00;99174.81;5023140;28;20538;-51
2023/10/24 09:25:34;;;;;;;0.30;0.20;;;;;;;14.44;100.00;99175.34;5019470;28;20507;-48
2023/10/24 09:28:17;;;;;;;0.30;0.20;;;;;;;14.28;100.00;99173.69;5023517;28;20534;-51
2023/10/24 09:30:44;;;;;;;0.30;0.20;;;;;;;14.37;100.00;99167.75;5027849;28;20509;-51
2023/10/24 09:33:11;;;;;;;0.30;0.20;;;;;;;14.42;100.00;99171.00;5026092;28;20443;-51
2023/10/24 09:35:38;;;;;;;0.30;0.20;;;;;;;14.36;100.00;99168.69;5020588;28;20467;-51
2023/10/24 09:38:09;;;;;;;0.30;0.20;;;;;;;14.29;100.00;99156.69;5022132;28;20506;-51
2023/10/24 09:40:39;;;;;;;0.30;0.20;;;;;;;14.36;100.00;99147.31;5027778;28;20548;-52
2023/10/24 09:43:33;;;;;;;0.40;0.33;;;;;;;14.45;100.00;99152.97;5027464;28;20507;-52
2023/10/24 09:46:01;;;;;;;0.30;0.20;;;;;;;14.44;100.00;99155.75;5013335;28;20433;-51
2023/10/24 09:48:29;;;;;;;0.30;0.20;;;;;;;14.48;100.00;99149.25;5020541;28;20859;-52
2023/10/24 09:50:57;;;;;;;0.30;0.20;;;;;;;14.42;100.00;99152.28;5023171;28;20420;-52
2023/10/24 09:53:24;;;;;;;0.30;0.20;;;;;;;14.47;100.00;99153.75;5027292;28;20463;-51
2023/10/24 09:55:50;;;;;;;0.30;0.20;;;;;;;14.54;100.00;99154.22;5014111;28;20431;-51
2023/10/24 09:58:20;;;;;;;0.30;0.20;;;;;;;14.54;100.00;99151.56;5019866;28;20496;-51
2023/10/24 10:00:47;;;;;;;0.30;0.20;;;;;;;14.82;100.00;99143.50;5021315;28;20453;-48
2023/10/24 10:03:15;;;;;;;0.30;0.20;;;;;;;14.77;100.00;99136.69;5019964;28;20535;-49
2023/10/24 10:05:44;;;;;;;0.30;0.20;;;;;;;14.70;100.00;99130.03;5020310;28;20935;-49
2023/10/24 10:08:15;;;;;;;0.30;0.20;;;;;;;14.60;100.00;99135.09;5008112;28;20530;-50
2023/10/24 10:10:43;;;;;;;0.30;0.20;;;;;;;14.69;100.00;99133.69;5020671;28;20905;-50
2023/10/24 10:13:16;;;;;;;0.30;0.20;;;;;;;14.67;100.00;99130.25;5025198;28;20829;-50
2023/10/24 10:15:57;;;;;;;0.30;0.20;;;;;;;14.81;100.00;99122.19;5026739;28;20443;-50
2023/10/24 10:18:37;;;;;;;0.30;0.20;;;;;;;14.75;100.00;99128.78;5025552;28;20580;-51
2023/10/24 10:21:36;;;;;;;0.30;0.20;;;;;;;14.86;100.00;99121.88;4998623;28;20451;-50
2023/10/24 10:24:20;;;;;;;0.30;0.20;;;;;;;14.84;100.00;99113.09;5024799;28;20971;-50
2023/10/24 10:27:09;;;;;;;0.30;0.20;;;;;;;14.89;100.00;99102.94;5026757;28;20929;-50
2023/10/24 10:29:54;;;;;;;0.30;0.30;;;;;;;14.94;100.00;99108.84;5023590;28;20983;-51
2023/10/24 10:33:09;;;;;;;0.30;0.20;;;;;;;15.02;100.00;99103.84;5012265;28;20419;-51
2023/10/24 10:36:05;;;;;;;0.33;0.23;;;;;;;15.17;100.00;99108.19;5007079;28;20981;-51
2023/10/24 10:38:46;;;;;;;0.30;0.20;;;;;;;15.41;100.00;99103.88;5019770;28;20475;-51
2023/10/24 10:41:21;;;;;;;0.30;0.20;;;;;;;15.50;100.00;99101.56;5020852;28;20454;-51
2023/10/24 10:43:49;;;;;;;0.30;0.20;;;;;;;15.40;100.00;99098.63;5008170;28;20491;-51
2023/10/24 10:46:16;;;;;;;0.30;0.20;;;;;;;15.67;100.00;99101.28;5019661;28;20974;-52
2023/10/24 10:48:43;;;;;;;0.30;0.20;;;;;;;15.75;100.00;99090.03;5025214;28;20989;-51
2023/10/24 10:51:13;;;;;;;0.30;0.20;;;;;;;15.51;100.00;99090.72;5017964;28;20950;-51
2023/10/24 10:53:47;;;;;;;0.30;0.20;;;;;;;15.43;100.00;99086.84;5021540;28;20426;-51
2023/10/24 10:56:19;;;;;;;0.30;0.20;;;;;;;15.51;100.00;99092.56;5016800;28;20458;-51
2023/10/24 10:59:11;;;;;;;0.30;0.20;;;;;;;15.35;100.00;99082.88;5022263;28;20454;-51
2023/10/24 11:01:59;;;;;;;0.30;0.20;;;;;;;15.27;100.00;99087.88;4996872;28;20467;-51
2023/10/24 11:04:27;;;;;;;0.50;0.50;;;;;;;15.32;100.00;99079.53;5026245;28;20493;-51
2023/10/24 11:06:55;;;;;;;0.30;0.30;;;;;;;15.26;100.00;99078.13;5022841;28;20418;-51
2023/10/24 11:09:30;;;;;;;0.30;0.20;;;;;;;15.38;100.00;99073.78;5019249;28;20446;-51
2023/10/24 11:12:21;;;;;;;0.30;0.20;;;;;;;15.37;100.00;99070.25;5021592;28;21008;-51
2023/10/24 11:15:06;;;;;;;0.30;0.20;;;;;;;15.45;100.00;99069.72;5007912;28;20957;-51
2023/10/24 11:17:34;;;;;;;0.30;0.20;;;;;;;15.42;100.00;99072.59;5018933;28;20509;-51
2023/10/24 11:20:02;;;;;;;0.30;0.20;;;;;;;15.40;100.00;99075.38;5021835;28;20793;-51
2023/10/24 11:22:47;;;;;;;0.30;0.20;;;;;;;15.33;100.00;99066.03;5019508;28;20451;-51
2023/10/24 11:25:16;;;;;;;0.30;0.20;;;;;;;15.41;100.00;99071.75;5017661;28;21068;-51
2023/10/24 11:27:42;;;;;;;0.30;0.20;;;;;;;15.42;100.00;99072.59;5024938;28;20517;-51
2023/10/24 11:30:09;;;;;;;0.30;0.20;;;;;;;15.38;100.00;99071.97;5025532;28;20521;-51